Time;durP1;ratioP1;P1;durP2;ratioP2;P2;SDS_P1;SDS_P2;PMS_P1;PMS_P2;Temp;Humidity;BMP_temperature;BMP_pressure;BME280_temperature;BME280_humidity;BME280_pressure;Samples;Min_cycle;Max_cycle;Signal;HPM_P1;HPM_P2
2024/04/16 00:00:22;;;;;;;16.40;3.00;;;;;;;7.77;100.00;100663.66;4713541;30;20064;-91
2024/04/16 00:02:50;;;;;;;17.33;3.60;;;;;;;7.82;100.00;100658.88;4722205;30;20041;-92
2024/04/16 00:05:35;;;;;;;13.95;2.65;;;;;;;7.88;100.00;100654.94;4705491;30;20385;-94
2024/04/16 00:08:18;;;;;;;11.90;2.50;;;;;;;7.85;100.00;100654.31;4700480;30;20060;-93
2024/04/16 00:10:53;;;;;;;14.98;2.63;;;;;;;7.82;100.00;100669.38;4702690;30;20037;-95
2024/04/16 00:13:28;;;;;;;12.05;2.30;;;;;;;7.85;100.00;100670.94;4730909;30;20049;-92
2024/04/16 00:16:06;;;;;;;17.40;2.67;;;;;;;7.84;100.00;100676.31;4698219;30;20048;-93
2024/04/16 00:18:35;;;;;;;16.10;2.60;;;;;;;7.77;100.00;100653.13;4701626;30;20123;-94
2024/04/16 00:21:06;;;;;;;15.13;3.10;;;;;;;7.81;100.00;100678.25;4715108;30;20052;-93
2024/04/16 00:23:35;;;;;;;14.57;2.35;;;;;;;7.84;100.00;100682.44;4715159;30;20507;-92
2024/04/16 00:26:04;;;;;;;13.68;2.30;;;;;;;7.79;100.00;100668.78;4714638;30;20426;-89
2024/04/16 00:28:36;;;;;;;14.38;2.13;;;;;;;7.91;100.00;100667.84;4698775;30;20048;-89
2024/04/16 00:31:03;;;;;;;12.15;2.20;;;;;;;7.82;100.00;100676.44;4713339;30;20037;-93
2024/04/16 00:33:29;;;;;;;19.38;2.53;;;;;;;7.80;100.00;100678.38;4712475;30;20096;-93
2024/04/16 00:36:07;;;;;;;16.02;2.15;;;;;;;7.90;100.00;100683.75;4714464;30;20483;-95
2024/04/16 00:38:34;;;;;;;14.45;2.60;;;;;;;7.78;100.00;100673.22;4712304;30;20048;-93
2024/04/16 00:41:00;;;;;;;10.77;2.60;;;;;;;7.86;100.00;100690.19;4716646;30;20488;-90
2024/04/16 00:43:29;;;;;;;12.18;1.92;;;;;;;7.84;100.00;100685.06;4708650;30;20045;-91
2024/04/16 00:46:04;;;;;;;16.13;2.28;;;;;;;7.89;100.00;100680.28;4701669;30;20056;-94
2024/04/16 00:48:31;;;;;;;8.32;1.85;;;;;;;7.86;100.00;100680.53;4713481;30;20484;-94
2024/04/16 00:51:45;;;;;;;17.33;2.13;;;;;;;7.90;100.00;100687.22;4726532;30;20098;-93
2024/04/16 00:54:27;;;;;;;16.25;2.03;;;;;;;7.89;100.00;100671.53;4719891;30;20041;-90
2024/04/16 00:57:05;;;;;;;17.83;2.90;;;;;;;7.85;100.00;100684.09;4717815;30;20037;-93
2024/04/16 01:02:38;;;;;;;12.60;2.80;;;;;;;7.93;100.00;100678.25;4716888;30;20049;-91
2024/04/16 01:05:06;;;;;;;10.07;1.40;;;;;;;7.93;100.00;100681.69;4715464;30;20041;-87
2024/04/16 01:07:39;;;;;;;10.23;2.50;;;;;;;7.94;100.00;100687.81;4713665;30;20132;-92
2024/04/16 01:10:11;;;;;;;14.18;2.55;;;;;;;7.99;100.00;100690.06;4714336;30;20048;-87
2024/04/16 01:12:47;;;;;;;9.77;1.90;;;;;;;7.97;100.00;100686.72;4702774;30;20045;-92
2024/04/16 01:15:33;;;;;;;9.95;1.88;;;;;;;7.85;100.00;100691.97;4706696;30;20049;-93
2024/04/16 01:18:12;;;;;;;13.07;2.58;;;;;;;7.89;100.00;100697.84;4716906;30;20052;-87
2024/04/16 01:20:41;;;;;;;15.15;2.80;;;;;;;7.88;100.00;100683.88;4703466;30;20144;-94
2024/04/16 01:23:36;;;;;;;15.55;2.25;;;;;;;7.94;100.00;100690.44;4696573;30;20064;-93
2024/04/16 01:26:13;;;;;;;16.52;3.05;;;;;;;7.89;100.00;100676.81;4698762;30;20104;-95
2024/04/16 01:28:51;;;;;;;11.15;2.35;;;;;;;7.88;100.00;100683.03;4708313;30;20033;-96
2024/04/16 01:31:40;;;;;;;14.30;2.70;;;;;;;7.91;100.00;100685.41;4731473;30;20053;-91
2024/04/16 01:34:27;;;;;;;15.77;2.25;;;;;;;7.85;100.00;100689.34;4706754;30;20033;-93
2024/04/16 01:41:02;;;;;;;14.20;2.25;;;;;;;7.75;100.00;100701.56;4720814;30;20499;-93
2024/04/16 01:43:40;;;;;;;17.77;2.95;;;;;;;7.76;100.00;100692.72;4715163;30;20041;-93
2024/04/16 01:46:07;;;;;;;16.52;2.67;;;;;;;7.80;100.00;100689.72;4731903;30;20045;-91
2024/04/16 01:48:38;;;;;;;18.52;2.47;;;;;;;7.87;100.00;100691.91;4719645;30;20183;-88
2024/04/16 01:51:44;;;;;;;13.82;2.50;;;;;;;7.82;100.00;100682.53;4706257;30;20045;-91
2024/04/16 01:54:10;;;;;;;15.00;3.30;;;;;;;7.81;100.00;100686.16;4718359;30;20140;-90
2024/04/16 01:57:09;;;;;;;12.15;3.25;;;;;;;7.83;100.00;100683.41;4722981;30;20045;-94
2024/04/16 02:00:29;;;;;;;18.10;2.35;;;;;;;7.78;100.00;100686.38;4706228;30;20047;-95
2024/04/16 02:03:10;;;;;;;13.18;2.95;;;;;;;7.80;100.00;100673.94;4722437;30;20174;-95
2024/04/16 02:05:51;;;;;;;12.30;2.10;;;;;;;7.79;100.00;100690.69;4732891;30;20288;-95
2024/04/16 02:08:53;;;;;;;13.20;2.30;;;;;;;7.84;100.00;100694.75;4704820;30;20705;-96
2024/04/16 02:11:19;;;;;;;14.13;2.05;;;;;;;7.78;100.00;100691.66;4731765;30;20117;-91
2024/04/16 02:13:45;;;;;;;15.73;1.90;;;;;;;7.77;100.00;100694.41;4701196;30;20610;-95
2024/04/16 02:16:51;;;;;;;10.68;1.85;;;;;;;7.82;100.00;100697.50;4705074;30;20081;-93
2024/04/16 02:19:23;;;;;;;10.40;1.90;;;;;;;7.80;100.00;100707.31;4722129;30;20046;-95
2024/04/16 02:22:06;;;;;;;10.05;2.08;;;;;;;7.82;100.00;100700.97;4717499;30;20033;-95
2024/04/16 02:24:32;;;;;;;14.38;2.65;;;;;;;7.79;100.00;100710.88;4701458;30;20135;-92
2024/04/16 02:27:04;;;;;;;19.77;2.50;;;;;;;7.75;100.00;100697.16;4715898;30;20602;-92
2024/04/16 02:29:37;;;;;;;9.77;1.65;;;;;;;7.85;100.00;100702.50;4703326;30;20044;-91
2024/04/16 02:32:25;;;;;;;12.70;2.25;;;;;;;7.80;100.00;100708.13;4705101;30;20132;-96
2024/04/16 02:34:59;;;;;;;13.75;1.83;;;;;;;7.80;100.00;100704.69;4721018;30;20045;-96
2024/04/16 02:37:35;;;;;;;16.35;2.22;;;;;;;7.75;100.00;100712.94;4714041;30;20054;-93
2024/04/16 02:40:45;;;;;;;9.55;1.92;;;;;;;7.84;100.00;100707.91;4716286;30;20148;-91
2024/04/16 02:43:21;;;;;;;11.55;1.63;;;;;;;7.81;100.00;100698.47;4701042;30;20515;-90
2024/04/16 02:46:36;;;;;;;8.98;1.63;;;;;;;7.81;100.00;100703.72;4708930;30;20045;-96
2024/04/16 02:49:17;;;;;;;7.65;1.95;;;;;;;7.77;100.00;100700.47;4719894;30;20048;-95
2024/04/16 02:52:07;;;;;;;7.38;1.60;;;;;;;7.81;100.00;100704.56;4721345;30;20045;-95
2024/04/16 02:54:51;;;;;;;10.02;1.60;;;;;;;7.73;100.00;100698.22;4702497;30;20068;-95
2024/04/16 02:57:28;;;;;;;7.88;1.23;;;;;;;7.73;100.00;100706.09;4705185;30;20061;-96
2024/04/16 03:00:06;;;;;;;8.77;2.10;;;;;;;7.74;100.00;100702.53;4704324;30;20517;-96
2024/04/16 03:02:36;;;;;;;3.90;0.70;;;;;;;7.63;100.00;100712.09;4705723;30;20744;-90
2024/04/16 03:05:05;;;;;;;2.75;0.75;;;;;;;7.64;100.00;100718.19;4704437;30;20040;-95
2024/04/16 03:07:37;;;;;;;4.85;1.13;;;;;;;7.62;100.00;100712.19;4713575;30;20065;-95
2024/04/16 03:10:04;;;;;;;5.03;0.80;;;;;;;7.66;100.00;100716.28;4704675;30;20063;-93
2024/04/16 03:12:43;;;;;;;4.63;0.85;;;;;;;7.63;100.00;100714.72;4715230;30;20539;-90
2024/04/16 03:15:16;;;;;;;2.75;0.60;;;;;;;7.68;100.00;100717.84;4714236;30;20519;-96
2024/04/16 03:17:45;;;;;;;6.47;0.73;;;;;;;7.68;100.00;100709.94;4724924;30;20049;-93
2024/04/16 03:20:21;;;;;;;6.13;1.00;;;;;;;7.60;100.00;100720.22;4715920;30;20649;-88
2024/04/16 03:26:04;;;;;;;4.22;0.75;;;;;;;7.49;100.00;100704.41;4711023;30;20143;-95
2024/04/16 03:28:44;;;;;;;6.63;1.27;;;;;;;7.46;100.00;100716.00;4716454;30;20052;-94
2024/04/16 03:31:10;;;;;;;;;;;;;;;7.43;100.00;100724.13;4686045;30;20533;-93
2024/04/16 03:33:40;;;;;;;7.90;0.90;;;;;;;7.42;100.00;100723.28;4718543;30;19941;-96
2024/04/16 03:36:11;;;;;;;4.10;0.60;;;;;;;7.40;100.00;100712.06;4697331;30;20060;-96
2024/04/16 03:38:37;;;;;;;7.22;1.00;;;;;;;7.42;100.00;100722.47;4732454;30;20049;-93
2024/04/16 03:41:06;;;;;;;5.43;1.00;;;;;;;7.39;100.00;100726.16;4701302;30;20484;-92
2024/04/16 03:43:32;;;;;;;7.38;0.90;;;;;;;7.38;100.00;100726.28;4729728;30;20045;-90
2024/04/16 03:46:04;;;;;;;4.53;0.70;;;;;;;7.36;100.00;100728.19;4702347;30;20514;-92
2024/04/16 03:48:33;;;;;;;3.60;0.73;;;;;;;7.34;100.00;100730.94;4703175;30;20056;-93
2024/04/16 03:51:04;;;;;;;7.55;1.27;;;;;;;7.33;100.00;100726.63;4717823;30;20068;-95
2024/04/16 03:53:37;;;;;;;9.90;1.30;;;;;;;7.30;100.00;100727.69;4719479;30;20137;-94
2024/04/16 03:56:06;;;;;;;;;;;;;;;7.26;100.00;100725.41;4719440;30;20045;-96
2024/04/16 03:58:44;;;;;;;9.02;1.05;;;;;;;7.28;100.00;100726.97;4707123;30;19930;-94
2024/04/16 04:01:24;;;;;;;8.40;1.45;;;;;;;7.26;100.00;100726.25;4714094;30;20898;-91
2024/04/16 04:03:50;;;;;;;6.95;1.23;;;;;;;7.24;100.00;100737.84;4710803;30;20045;-90
2024/04/16 04:06:16;;;;;;;9.57;1.90;;;;;;;7.16;100.00;100736.63;4701591;30;20053;-94
2024/04/16 04:08:42;;;;;;;9.45;2.03;;;;;;;7.15;100.00;100731.50;4733532;30;20044;-94
2024/04/16 04:11:08;;;;;;;7.65;1.25;;;;;;;7.20;100.00;100745.09;4719293;30;20059;-92
2024/04/16 04:13:42;;;;;;;9.77;1.95;;;;;;;7.20;100.00;100732.81;4737489;30;20057;-95
2024/04/16 04:16:17;;;;;;;7.20;1.45;;;;;;;7.17;100.00;100727.78;4713508;30;20049;-95
2024/04/16 04:19:09;;;;;;;9.00;2.13;;;;;;;7.19;100.00;100738.19;4729644;30;20045;-94
2024/04/16 04:21:50;;;;;;;12.18;1.88;;;;;;;7.22;100.00;100735.31;4706824;30;20033;-92
2024/04/16 04:24:19;;;;;;;11.68;2.03;;;;;;;7.19;100.00;100736.41;4701940;30;20044;-81
2024/04/16 04:26:45;;;;;;;13.30;1.77;;;;;;;7.19;100.00;100746.91;4720933;30;20492;-90
2024/04/16 04:29:11;;;;;;;13.20;2.10;;;;;;;7.12;100.00;100748.31;4715148;30;20080;-85
2024/04/16 04:31:37;;;;;;;12.10;1.88;;;;;;;7.11;100.00;100746.66;4727757;30;20073;-85
2024/04/16 04:34:04;;;;;;;24.25;2.25;;;;;;;7.12;100.00;100747.50;4714763;30;20119;-88
2024/04/16 04:36:30;;;;;;;11.18;2.17;;;;;;;7.08;100.00;100746.88;4716866;30;20110;-84
2024/04/16 04:38:56;;;;;;;16.67;2.28;;;;;;;7.07;100.00;100751.28;4687524;30;20075;-83
2024/04/16 04:41:40;;;;;;;12.65;1.95;;;;;;;7.16;100.00;100760.28;4701763;30;20076;-87
2024/04/16 04:44:09;;;;;;;13.52;1.95;;;;;;;7.04;100.00;100767.28;4716229;30;20045;-85
2024/04/16 04:46:35;;;;;;;12.32;1.90;;;;;;;7.11;100.00;100767.69;4730564;30;20036;-83
2024/04/16 04:49:01;;;;;;;13.77;2.03;;;;;;;7.05;100.00;100768.97;4714623;30;20059;-83
2024/04/16 04:51:26;;;;;;;13.63;2.17;;;;;;;7.09;100.00;100771.38;4717206;30;20045;-83
2024/04/16 04:53:55;;;;;;;14.50;2.47;;;;;;;7.06;100.00;100769.78;4729826;30;20045;-86
2024/04/16 04:56:20;;;;;;;9.07;1.55;;;;;;;7.08;100.00;100778.41;4715995;30;20052;-85
2024/04/16 04:58:46;;;;;;;11.57;2.50;;;;;;;7.07;100.00;100780.19;4689306;30;20041;-84
2024/04/16 05:01:12;;;;;;;17.13;2.38;;;;;;;7.06;100.00;100778.53;4716057;30;20067;-85
2024/04/16 05:03:38;;;;;;;14.80;2.38;;;;;;;7.07;100.00;100774.94;4709930;30;20520;-83
2024/04/16 05:06:06;;;;;;;19.20;2.45;;;;;;;7.03;100.00;100778.75;4703074;30;20044;-83
2024/04/16 05:08:32;;;;;;;15.55;2.58;;;;;;;6.99;100.00;100774.66;4706409;30;20383;-84
2024/04/16 05:10:57;;;;;;;16.08;1.95;;;;;;;7.02;100.00;100773.63;4719760;30;20203;-84
2024/04/16 05:13:23;;;;;;;17.80;2.72;;;;;;;6.99;100.00;100779.91;4715642;30;20037;-87
2024/04/16 05:15:49;;;;;;;16.42;2.55;;;;;;;7.01;100.00;100783.28;4728889;30;20076;-82
2024/04/16 05:18:15;;;;;;;15.45;1.98;;;;;;;6.95;100.00;100786.34;4727713;30;20099;-79
2024/04/16 05:20:46;;;;;;;17.67;3.35;;;;;;;6.98;100.00;100782.66;4712107;30;20045;-81
2024/04/16 05:23:12;;;;;;;20.52;2.22;;;;;;;6.93;100.00;100790.88;4721283;30;20751;-82
2024/04/16 05:25:39;;;;;;;31.48;3.03;;;;;;;6.93;100.00;100790.88;4715439;30;20079;-82
2024/04/16 05:28:05;;;;;;;23.95;2.88;;;;;;;6.87;100.00;100794.81;4729562;30;20061;-85
2024/04/16 05:30:31;;;;;;;11.98;2.00;;;;;;;6.86;100.00;100785.25;4728463;30;20102;-82
2024/04/16 05:32:56;;;;;;;12.48;2.10;;;;;;;6.88;100.00;100790.41;4726385;30;20096;-86
2024/04/16 05:35:22;;;;;;;21.15;2.88;;;;;;;6.86;100.00;100781.78;4726158;30;20064;-83
2024/04/16 05:37:50;;;;;;;23.23;2.83;;;;;;;6.89;100.00;100785.03;4699339;30;20061;-82
2024/04/16 05:40:19;;;;;;;12.80;3.38;;;;;;;6.91;100.00;100790.16;4702799;30;20402;-83
2024/04/16 05:42:45;;;;;;;20.00;5.88;;;;;;;6.83;100.00;100786.28;4720244;30;20518;-84
2024/04/16 05:45:11;;;;;;;20.02;2.63;;;;;;;6.85;100.00;100793.25;4730471;30;20182;-82
2024/04/16 05:47:37;;;;;;;12.68;2.42;;;;;;;6.85;100.00;100799.31;4712924;30;20488;-82
2024/04/16 05:50:03;;;;;;;17.33;2.17;;;;;;;6.88;100.00;100795.66;4698463;30;20052;-81
2024/04/16 05:52:29;;;;;;;14.85;2.22;;;;;;;6.85;100.00;100795.88;4702873;30;20115;-84
2024/04/16 05:54:55;;;;;;;15.18;2.35;;;;;;;6.78;100.00;100798.94;4727335;30;20057;-86
2024/04/16 05:57:21;;;;;;;19.02;2.45;;;;;;;6.82;100.00;100800.41;4699512;30;20052;-88
2024/04/16 05:59:47;;;;;;;15.75;2.58;;;;;;;6.84;100.00;100795.03;4705235;30;20492;-86
2024/04/16 06:02:12;;;;;;;17.65;2.70;;;;;;;6.85;100.00;100798.50;4723366;30;20049;-81
2024/04/16 06:04:38;;;;;;;15.15;2.50;;;;;;;6.81;100.00;100796.09;4713652;30;20128;-83
2024/04/16 06:07:04;;;;;;;12.85;3.05;;;;;;;6.78;100.00;100792.84;4720973;30;20053;-82
2024/04/16 06:09:30;;;;;;;22.88;3.35;;;;;;;6.77;100.00;100792.00;4699537;30;20065;-83
2024/04/16 06:11:56;;;;;;;15.80;2.67;;;;;;;6.79;100.00;100784.84;4712327;30;20065;-80
2024/04/16 06:14:25;;;;;;;16.30;2.53;;;;;;;6.81;100.00;100790.84;4726651;30;20049;-79
2024/04/16 06:16:50;;;;;;;13.95;2.30;;;;;;;6.83;100.00;100783.66;4700925;30;20051;-81
2024/04/16 06:19:16;;;;;;;19.23;4.22;;;;;;;6.85;100.00;100785.38;4723989;30;20040;-82
2024/04/16 06:21:44;;;;;;;23.65;3.50;;;;;;;6.88;100.00;100803.53;4699906;30;20044;-82
2024/04/16 06:24:10;;;;;;;24.25;3.83;;;;;;;6.90;100.00;100799.84;4695855;30;20488;-83
2024/04/16 06:26:39;;;;;;;19.70;2.85;;;;;;;6.98;100.00;100806.31;4711832;30;20041;-84
2024/04/16 06:29:05;;;;;;;15.43;2.08;;;;;;;6.94;100.00;100800.47;4713563;30;20627;-84
2024/04/16 06:31:31;;;;;;;11.82;2.50;;;;;;;6.94;100.00;100810.97;4705053;30;20403;-80
2024/04/16 06:33:58;;;;;;;17.95;2.83;;;;;;;6.99;100.00;100815.91;4708628;30;20033;-82
2024/04/16 06:36:24;;;;;;;17.00;2.65;;;;;;;6.98;100.00;100803.69;4711243;30;20044;-82
2024/04/16 06:38:49;;;;;;;18.50;2.47;;;;;;;7.03;100.00;100812.06;4727813;30;20045;-85
2024/04/16 06:41:19;;;;;;;22.65;4.00;;;;;;;7.14;100.00;100801.63;4703038;30;20043;-82
2024/04/16 06:43:44;;;;;;;14.73;1.77;;;;;;;7.13;100.00;100812.25;4711597;30;20107;-86
2024/04/16 06:46:10;;;;;;;11.48;2.83;;;;;;;7.23;100.00;100823.75;4714269;30;20491;-84
2024/04/16 06:48:36;;;;;;;11.27;2.22;;;;;;;7.24;100.00;100821.97;4708688;30;20106;-86
2024/04/16 06:51:05;;;;;;;21.92;3.45;;;;;;;7.33;100.00;100816.03;4702572;30;20551;-80
2024/04/16 06:53:31;;;;;;;11.75;1.90;;;;;;;7.30;100.00;100829.41;4709364;30;20042;-81
2024/04/16 06:56:06;;;;;;;18.42;2.30;;;;;;;7.44;100.00;100833.63;4707721;30;20065;-79
2024/04/16 06:58:33;;;;;;;18.92;3.53;;;;;;;7.39;100.00;100833.16;4710687;30;21381;-81
2024/04/16 07:00:59;;;;;;;16.38;2.35;;;;;;;7.36;100.00;100836.84;4704817;30;20524;-81
2024/04/16 07:03:25;;;;;;;13.13;2.10;;;;;;;7.27;100.00;100837.53;4709333;30;20048;-80
2024/04/16 07:05:51;;;;;;;13.73;2.15;;;;;;;7.15;100.00;100840.09;4709149;30;20041;-85
2024/04/16 07:08:19;;;;;;;11.98;1.60;;;;;;;7.20;100.00;100837.97;4722246;30;20045;-84
2024/04/16 07:10:48;;;;;;;12.77;3.10;;;;;;;7.35;100.00;100842.22;4711978;30;20099;-81
2024/04/16 07:13:18;;;;;;;14.30;2.15;;;;;;;7.48;100.00;100836.88;4710573;30;20041;-82
2024/04/16 07:15:44;;;;;;;14.65;2.65;;;;;;;7.64;100.00;100837.44;4726299;30;20131;-80
2024/04/16 07:18:10;;;;;;;13.27;2.63;;;;;;;7.78;100.00;100846.06;4714915;30;20189;-78
2024/04/16 07:20:36;;;;;;;14.48;2.17;;;;;;;7.71;100.00;100840.41;4712335;30;20037;-83
2024/04/16 07:23:02;;;;;;;12.57;3.17;;;;;;;7.44;100.00;100852.06;4712726;30;20207;-86
2024/04/16 07:25:28;;;;;;;17.15;2.42;;;;;;;7.37;100.00;100845.56;4711498;30;20041;-80
2024/04/16 07:27:54;;;;;;;14.23;2.13;;;;;;;7.44;100.00;100858.16;4709092;30;20385;-79
2024/04/16 07:30:20;;;;;;;16.90;2.72;;;;;;;7.50;100.00;100856.03;4697845;30;20052;-82
2024/04/16 07:32:46;;;;;;;17.85;2.42;;;;;;;7.48;100.00;100856.16;4725205;30;20875;-85
2024/04/16 07:35:12;;;;;;;11.95;1.58;;;;;;;7.49;100.00;100868.34;4695646;30;20041;-80
2024/04/16 07:37:37;;;;;;;14.88;2.55;;;;;;;7.57;100.00;100865.13;4709378;30;20052;-79
2024/04/16 07:40:03;;;;;;;9.70;2.67;;;;;;;7.78;100.00;100853.97;4709182;30;20037;-79
2024/04/16 07:42:29;;;;;;;13.00;2.20;;;;;;;7.80;100.00;100857.31;4708989;30;20037;-79
2024/04/16 07:44:55;;;;;;;11.35;1.80;;;;;;;7.59;100.00;100852.72;4687323;30;20919;-78
2024/04/16 07:47:21;;;;;;;11.70;1.85;;;;;;;7.48;100.00;100853.53;4706269;30;20199;-79
2024/04/16 07:49:47;;;;;;;16.52;2.30;;;;;;;7.55;100.00;100854.72;4702820;30;20272;-79
2024/04/16 07:52:13;;;;;;;15.10;2.33;;;;;;;7.64;100.00;100857.63;4725601;30;20090;-81
2024/04/16 07:54:39;;;;;;;13.98;1.75;;;;;;;7.72;100.00;100857.91;4711606;30;20566;-79
2024/04/16 07:57:05;;;;;;;12.65;1.80;;;;;;;7.75;100.00;100862.94;4722553;30;20050;-79
2024/04/16 07:59:31;;;;;;;6.07;1.77;;;;;;;7.75;100.00;100855.03;4724009;30;20108;-79
2024/04/16 08:01:56;;;;;;;15.02;3.55;;;;;;;7.84;100.00;100855.28;4725179;30;20289;-88
2024/04/16 08:04:22;;;;;;;13.40;1.98;;;;;;;7.88;100.00;100865.47;4697216;30;20425;-84
2024/04/16 08:06:48;;;;;;;14.35;2.35;;;;;;;7.86;100.00;100863.91;4710458;30;20080;-79
2024/04/16 08:09:14;;;;;;;18.50;1.88;;;;;;;7.75;100.00;100843.66;4693760;30;20045;-79
2024/04/16 08:11:40;;;;;;;13.25;2.08;;;;;;;7.56;100.00;100852.94;4709763;30;20124;-79
2024/04/16 08:14:06;;;;;;;14.45;2.22;;;;;;;7.44;100.00;100841.53;4712016;30;20045;-79
2024/04/16 08:16:31;;;;;;;12.95;2.22;;;;;;;7.37;100.00;100846.44;4710749;30;20045;-82
2024/04/16 08:18:57;;;;;;;12.32;2.05;;;;;;;7.37;100.00;100846.44;4707967;30;20041;-82
2024/04/16 08:21:23;;;;;;;11.88;1.95;;;;;;;7.37;100.00;100841.16;4723325;30;20080;-79
2024/04/16 08:23:55;;;;;;;10.95;1.73;;;;;;;7.45;100.00;100843.22;4709994;30;20041;-78
2024/04/16 08:26:21;;;;;;;10.88;1.88;;;;;;;7.41;100.00;100852.28;4719416;30;20068;-79
2024/04/16 08:28:46;;;;;;;11.63;1.90;;;;;;;7.41;100.00;100847.03;4710026;30;20897;-79
2024/04/16 08:31:12;;;;;;;9.52;1.40;;;;;;;7.52;100.00;100833.91;4705914;30;20045;-77
2024/04/16 08:33:39;;;;;;;15.25;2.72;;;;;;;7.71;100.00;100832.53;4725989;30;20502;-80
2024/04/16 08:36:05;;;;;;;11.50;1.83;;;;;;;7.88;100.00;100840.94;4712926;30;20045;-79
2024/04/16 08:38:31;;;;;;;8.68;1.70;;;;;;;7.96;100.00;100838.56;4697425;30;20048;-81
2024/04/16 08:40:56;;;;;;;15.90;1.50;;;;;;;8.16;100.00;100839.66;4697526;30;20037;-80
2024/04/16 08:43:24;;;;;;;9.20;1.40;;;;;;;8.24;100.00;100833.81;4709740;30;20412;-81
2024/04/16 08:45:51;;;;;;;11.00;2.00;;;;;;;8.31;100.00;100836.81;4726269;30;20041;-79
2024/04/16 08:48:17;;;;;;;11.30;1.63;;;;;;;8.35;100.00;100840.00;4710928;30;20053;-79
2024/04/16 08:50:46;;;;;;;12.77;3.13;;;;;;;8.39;100.00;100838.84;4709816;30;20124;-81
2024/04/16 08:53:13;;;;;;;8.52;1.25;;;;;;;8.44;100.00;100839.31;4711177;30;20033;-80
2024/04/16 08:55:41;;;;;;;12.90;1.85;;;;;;;8.50;100.00;100854.66;4711245;30;20466;-81
2024/04/16 08:58:07;;;;;;;7.53;1.38;;;;;;;8.51;100.00;100837.03;4727942;30;20056;-80
2024/04/16 09:00:32;;;;;;;8.55;1.30;;;;;;;8.53;100.00;100833.31;4686188;30;20061;-78
2024/04/16 09:02:58;;;;;;;18.35;1.48;;;;;;;8.46;100.00;100852.38;4714405;30;20455;-79
2024/04/16 09:05:24;;;;;;;10.18;1.83;;;;;;;8.47;100.00;100846.97;4699549;30;20611;-79
2024/04/16 09:07:50;;;;;;;9.82;2.08;;;;;;;8.47;100.00;100849.63;4710319;30;20063;-80
2024/04/16 09:10:21;;;;;;;9.00;1.35;;;;;;;8.54;100.00;100855.22;4707654;30;20045;-80
2024/04/16 09:12:50;;;;;;;11.98;2.47;;;;;;;8.54;100.00;100849.94;4716478;30;20137;-79
2024/04/16 09:15:18;;;;;;;13.88;2.25;;;;;;;8.65;100.00;100854.41;4698798;30;20040;-84
2024/04/16 09:17:55;;;;;;;14.52;3.80;;;;;;;8.84;100.00;100853.78;4698385;30;20045;-83
2024/04/16 09:20:24;;;;;;;6.82;1.77;;;;;;;8.94;100.00;100856.53;4711196;30;20127;-87
2024/04/16 09:22:52;;;;;;;11.55;1.88;;;;;;;8.93;100.00;100852.22;4702593;30;20136;-89
2024/04/16 09:25:20;;;;;;;7.13;1.60;;;;;;;8.99;100.00;100867.53;4716372;30;20045;-92
2024/04/16 09:27:54;;;;;;;5.45;1.17;;;;;;;9.03;100.00;100868.13;4717265;30;20048;-88
2024/04/16 09:30:21;;;;;;;6.88;1.40;;;;;;;9.04;100.00;100861.91;4702412;30;20075;-89
2024/04/16 09:32:56;;;;;;;13.82;1.80;;;;;;;9.13;100.00;100894.59;4711352;30;20060;-92
2024/04/16 09:35:29;;;;;;;7.38;1.50;;;;;;;9.13;100.00;100873.47;4700768;30;20056;-88
2024/04/16 09:38:18;;;;;;;7.95;1.17;;;;;;;9.08;100.00;100855.41;4697221;30;20033;-87
2024/04/16 09:40:46;;;;;;;5.95;1.05;;;;;;;9.14;100.00;100889.19;4712919;30;20048;-87
2024/04/16 09:43:13;;;;;;;7.85;1.15;;;;;;;9.22;100.00;100874.56;4718295;30;20106;-85
2024/04/16 09:45:40;;;;;;;11.52;1.60;;;;;;;9.27;100.00;100870.56;4698117;30;20044;-87
2024/04/16 09:48:08;;;;;;;7.97;1.48;;;;;;;9.35;100.00;100863.84;4709606;30;20045;-83
2024/04/16 09:50:36;;;;;;;11.98;1.75;;;;;;;9.42;100.00;100868.50;4684961;30;20041;-85
2024/04/16 09:53:06;;;;;;;11.73;1.88;;;;;;;9.47;100.00;100878.66;4717694;30;20033;-87
2024/04/16 09:55:35;;;;;;;7.97;1.40;;;;;;;9.48;100.00;100877.69;4699481;30;20106;-83
2024/04/16 09:58:02;;;;;;;11.43;1.95;;;;;;;9.56;100.00;100887.59;4699759;30;20040;-86
2024/04/16 10:00:28;;;;;;;7.13;1.48;;;;;;;9.48;100.00;100895.31;4697344;30;20090;-86
2024/04/16 10:02:55;;;;;;;10.38;1.52;;;;;;;9.37;100.00;100873.31;4694737;30;20033;-81
2024/04/16 10:05:21;;;;;;;4.90;1.38;;;;;;;9.42;100.00;100873.75;4726198;30;20076;-78
2024/04/16 10:07:48;;;;;;;7.22;1.60;;;;;;;9.65;100.00;100886.84;4710499;30;20079;-82
2024/04/16 10:10:15;;;;;;;6.93;1.10;;;;;;;9.86;100.00;100872.81;4710954;30;20084;-80
2024/04/16 10:12:42;;;;;;;8.95;1.42;;;;;;;10.01;100.00;100881.25;4725955;30;20045;-81
2024/04/16 10:15:12;;;;;;;6.47;1.17;;;;;;;9.93;100.00;100873.16;4724683;30;20046;-80
2024/04/16 10:17:51;;;;;;;10.82;1.88;;;;;;;9.79;100.00;100896.25;4723105;30;20530;-80
2024/04/16 10:20:17;;;;;;;6.72;1.65;;;;;;;9.83;100.00;100878.34;4724921;30;20069;-80
2024/04/16 10:22:59;;;;;;;15.40;1.70;;;;;;;9.81;100.00;100885.56;4704417;30;20132;-78
2024/04/16 10:25:31;;;;;;;10.98;1.75;;;;;;;9.80;100.00;100884.75;4711689;30;20045;-83
2024/04/16 10:27:58;;;;;;;6.47;1.48;;;;;;;9.87;100.00;100882.44;4710156;30;20083;-80
2024/04/16 10:30:28;;;;;;;5.82;1.45;;;;;;;9.82;100.00;100878.50;4698351;30;20102;-80
2024/04/16 10:32:56;;;;;;;10.93;1.13;;;;;;;9.77;100.00;100884.16;4726685;30;20037;-81
2024/04/16 10:35:22;;;;;;;4.80;1.27;;;;;;;10.00;100.00;100884.84;4725589;30;20040;-83
2024/04/16 10:37:49;;;;;;;7.00;1.33;;;;;;;10.25;100.00;100880.16;4723681;30;20046;-81
2024/04/16 10:40:27;;;;;;;13.23;1.50;;;;;;;10.38;100.00;100879.09;4711852;30;20045;-83
2024/04/16 10:42:54;;;;;;;9.15;2.20;;;;;;;10.57;100.00;100865.16;4717640;30;20037;-85
2024/04/16 10:45:21;;;;;;;5.38;1.58;;;;;;;10.67;100.00;100879.22;4727691;30;20096;-82
2024/04/16 10:47:48;;;;;;;7.38;1.33;;;;;;;10.66;100.00;100887.28;4711773;30;20110;-80
2024/04/16 10:50:14;;;;;;;2.75;0.63;;;;;;;10.59;100.00;100886.97;4726871;30;20076;-80
2024/04/16 10:52:40;;;;;;;5.22;1.10;;;;;;;10.58;100.00;100892.41;4725592;30;20427;-81
2024/04/16 10:55:06;;;;;;;3.25;0.57;;;;;;;10.58;100.00;100893.25;4710510;30;20049;-81
2024/04/16 10:57:32;;;;;;;3.40;0.52;;;;;;;10.63;100.00;100903.41;4696623;30;20041;-84
2024/04/16 11:00:00;;;;;;;3.38;0.57;;;;;;;10.53;100.00;100898.09;4696246;30;20065;-80
2024/04/16 11:02:26;;;;;;;10.95;1.30;;;;;;;10.35;100.00;100901.31;4697885;30;20068;-87
2024/04/16 11:04:52;;;;;;;5.72;1.17;;;;;;;10.27;100.00;100906.44;4710187;30;20045;-83
2024/04/16 11:07:18;;;;;;;2.13;0.70;;;;;;;10.28;100.00;100900.16;4711177;30;20049;-81
2024/04/16 11:09:44;;;;;;;3.25;0.50;;;;;;;10.36;100.00;100902.16;4724983;30;20122;-81
2024/04/16 11:12:11;;;;;;;4.35;0.47;;;;;;;10.41;100.00;100903.47;4718474;30;20117;-82
2024/04/16 11:14:37;;;;;;;5.25;0.90;;;;;;;10.48;100.00;100895.84;4697394;30;20044;-82
2024/04/16 11:17:04;;;;;;;6.95;0.80;;;;;;;10.27;100.00;100917.81;4698095;30;20037;-80
2024/04/16 11:19:31;;;;;;;4.60;0.70;;;;;;;10.12;100.00;100904.13;4726454;30;20048;-82
2024/04/16 11:21:57;;;;;;;3.95;0.60;;;;;;;10.04;100.00;100909.22;4721672;30;20040;-80
2024/04/16 11:24:24;;;;;;;3.45;0.63;;;;;;;9.97;100.00;100908.88;4696766;30;20036;-82
2024/04/16 11:26:50;;;;;;;4.72;0.60;;;;;;;9.91;100.00;100915.53;4710722;30;20487;-83
2024/04/16 11:29:19;;;;;;;3.63;0.68;;;;;;;10.10;100.00;100907.84;4709674;30;20053;-82
2024/04/16 11:31:46;;;;;;;5.20;1.08;;;;;;;10.23;100.00;100905.84;4722892;30;20249;-83
2024/04/16 11:34:12;;;;;;;6.07;0.82;;;;;;;10.46;100.00;100902.22;4711782;30;20137;-80
2024/04/16 11:36:48;;;;;;;3.13;0.50;;;;;;;10.59;100.00;100917.88;4696841;30;20048;-82
2024/04/16 11:39:13;;;;;;;1.60;0.35;;;;;;;10.20;100.00;100918.47;4711712;30;20040;-82
2024/04/16 11:41:39;;;;;;;2.45;0.50;;;;;;;9.89;100.00;100914.81;4716973;30;20045;-82
2024/04/16 11:44:05;;;;;;;1.55;0.40;;;;;;;9.90;100.00;100918.28;4709179;30;20037;-81